sensor_id;sensor_type;location;lat;lon;timestamp;P1;durP1;ratioP1;P2;durP2;ratioP2
60847;SDS011;46681;47.696;9.140;2022-09-01T00:01:42;7.88;;;2.80;;
60847;SDS011;46681;47.696;9.140;2022-09-01T00:04:20;8.30;;;3.10;;
60847;SDS011;46681;47.696;9.140;2022-09-01T00:06:54;7.88;;;2.83;;
60847;SDS011;46681;47.696;9.140;2022-09-01T00:09:30;8.43;;;2.92;;
60847;SDS011;46681;47.696;9.140;2022-09-01T00:12:19;7.63;;;2.70;;
60847;SDS011;46681;47.696;9.140;2022-09-01T00:14:48;8.55;;;2.85;;
60847;SDS011;46681;47.696;9.140;2022-09-01T00:17:34;8.05;;;2.80;;
60847;SDS011;46681;47.696;9.140;2022-09-01T00:20:00;8.90;;;3.10;;
60847;SDS011;46681;47.696;9.140;2022-09-01T00:22:27;7.78;;;2.70;;
60847;SDS011;46681;47.696;9.140;2022-09-01T00:24:52;8.27;;;2.85;;
60847;SDS011;46681;47.696;9.140;2022-09-01T00:27:26;8.30;;;2.90;;
60847;SDS011;46681;47.696;9.140;2022-09-01T00:30:07;7.18;;;2.55;;
60847;SDS011;46681;47.696;9.140;2022-09-01T00:32:47;7.95;;;2.70;;
60847;SDS011;46681;47.696;9.140;2022-09-01T00:35:26;9.20;;;2.90;;
60847;SDS011;46681;47.696;9.140;2022-09-01T00:37:59;7.53;;;2.67;;
60847;SDS011;46681;47.696;9.140;2022-09-01T00:40:28;9.32;;;3.10;;
60847;SDS011;46681;47.696;9.140;2022-09-01T00:42:54;7.93;;;2.58;;
60847;SDS011;46681;47.696;9.140;2022-09-01T00:45:54;7.85;;;2.72;;
60847;SDS011;46681;47.696;9.140;2022-09-01T00:48:45;11.07;;;3.08;;
60847;SDS011;46681;47.696;9.140;2022-09-01T00:51:21;8.43;;;2.88;;
60847;SDS011;46681;47.696;9.140;2022-09-01T00:53:49;7.85;;;2.90;;
60847;SDS011;46681;47.696;9.140;2022-09-01T00:56:34;8.45;;;3.10;;
60847;SDS011;46681;47.696;9.140;2022-09-01T00:59:04;8.32;;;2.80;;
60847;SDS011;46681;47.696;9.140;2022-09-01T01:01:40;8.20;;;2.88;;
60847;SDS011;46681;47.696;9.140;2022-09-01T01:04:09;9.15;;;3.00;;
60847;SDS011;46681;47.696;9.140;2022-09-01T01:06:34;7.57;;;2.70;;
60847;SDS011;46681;47.696;9.140;2022-09-01T01:09:02;7.97;;;2.80;;
60847;SDS011;46681;47.696;9.140;2022-09-01T01:11:44;8.55;;;2.65;;
60847;SDS011;46681;47.696;9.140;2022-09-01T01:14:14;7.47;;;2.75;;
60847;SDS011;46681;47.696;9.140;2022-09-01T01:16:41;8.80;;;3.30;;
60847;SDS011;46681;47.696;9.140;2022-09-01T01:21:55;7.20;;;2.53;;
60847;SDS011;46681;47.696;9.140;2022-09-01T01:27:07;8.13;;;2.70;;
60847;SDS011;46681;47.696;9.140;2022-09-01T01:29:36;8.10;;;2.83;;
60847;SDS011;46681;47.696;9.140;2022-09-01T01:32:04;8.15;;;2.88;;
60847;SDS011;46681;47.696;9.140;2022-09-01T01:34:30;7.78;;;2.80;;
60847;SDS011;46681;47.696;9.140;2022-09-01T01:39:48;7.57;;;2.65;;
60847;SDS011;46681;47.696;9.140;2022-09-01T01:42:23;7.47;;;2.70;;
60847;SDS011;46681;47.696;9.140;2022-09-01T01:45:00;8.25;;;2.90;;
60847;SDS011;46681;47.696;9.140;2022-09-01T01:47:26;7.72;;;3.03;;
60847;SDS011;46681;47.696;9.140;2022-09-01T01:49:55;7.90;;;2.90;;
60847;SDS011;46681;47.696;9.140;2022-09-01T01:52:32;7.95;;;2.90;;
60847;SDS011;46681;47.696;9.140;2022-09-01T01:55:00;8.13;;;2.88;;
60847;SDS011;46681;47.696;9.140;2022-09-01T02:00:18;8.38;;;3.00;;
60847;SDS011;46681;47.696;9.140;2022-09-01T02:03:11;8.90;;;3.25;;
60847;SDS011;46681;47.696;9.140;2022-09-01T02:05:57;8.60;;;3.20;;
60847;SDS011;46681;47.696;9.140;2022-09-01T02:08:32;9.18;;;3.35;;
60847;SDS011;46681;47.696;9.140;2022-09-01T02:11:02;9.30;;;3.20;;
60847;SDS011;46681;47.696;9.140;2022-09-01T02:13:29;8.55;;;2.97;;
60847;SDS011;46681;47.696;9.140;2022-09-01T02:15:56;8.63;;;3.17;;
60847;SDS011;46681;47.696;9.140;2022-09-01T02:18:30;8.95;;;3.40;;
60847;SDS011;46681;47.696;9.140;2022-09-01T02:21:02;8.35;;;3.30;;
60847;SDS011;46681;47.696;9.140;2022-09-01T02:26:25;8.85;;;3.15;;
60847;SDS011;46681;47.696;9.140;2022-09-01T02:29:05;8.93;;;3.42;;
60847;SDS011;46681;47.696;9.140;2022-09-01T02:31:55;9.85;;;3.65;;
60847;SDS011;46681;47.696;9.140;2022-09-01T02:34:24;8.52;;;3.40;;
60847;SDS011;46681;47.696;9.140;2022-09-01T02:36:58;8.45;;;3.30;;
60847;SDS011;46681;47.696;9.140;2022-09-01T02:39:30;9.05;;;3.60;;
60847;SDS011;46681;47.696;9.140;2022-09-01T02:42:11;9.23;;;3.30;;
60847;SDS011;46681;47.696;9.140;2022-09-01T02:44:39;8.80;;;3.40;;
60847;SDS011;46681;47.696;9.140;2022-09-01T02:47:07;8.85;;;3.38;;
60847;SDS011;46681;47.696;9.140;2022-09-01T02:49:39;9.10;;;3.60;;
60847;SDS011;46681;47.696;9.140;2022-09-01T02:52:13;9.73;;;3.60;;
60847;SDS011;46681;47.696;9.140;2022-09-01T02:54:48;9.80;;;3.35;;
60847;SDS011;46681;47.696;9.140;2022-09-01T02:57:14;8.70;;;3.33;;
60847;SDS011;46681;47.696;9.140;2022-09-01T02:59:52;8.50;;;3.30;;
60847;SDS011;46681;47.696;9.140;2022-09-01T03:02:20;8.68;;;3.20;;
60847;SDS011;46681;47.696;9.140;2022-09-01T03:04:51;8.05;;;3.05;;
60847;SDS011;46681;47.696;9.140;2022-09-01T03:07:23;8.48;;;3.28;;
60847;SDS011;46681;47.696;9.140;2022-09-01T03:09:48;8.20;;;3.03;;
60847;SDS011;46681;47.696;9.140;2022-09-01T03:12:17;8.65;;;3.40;;
60847;SDS011;46681;47.696;9.140;2022-09-01T03:14:48;8.18;;;3.40;;
60847;SDS011;46681;47.696;9.140;2022-09-01T03:17:16;11.48;;;3.13;;
60847;SDS011;46681;47.696;9.140;2022-09-01T03:19:45;8.98;;;3.40;;
60847;SDS011;46681;47.696;9.140;2022-09-01T03:22:16;9.00;;;3.50;;
60847;SDS011;46681;47.696;9.140;2022-09-01T03:24:51;8.32;;;3.10;;
60847;SDS011;46681;47.696;9.140;2022-09-01T03:27:20;8.75;;;3.17;;
60847;SDS011;46681;47.696;9.140;2022-09-01T03:29:52;8.43;;;3.15;;
60847;SDS011;46681;47.696;9.140;2022-09-01T03:32:19;8.55;;;3.40;;
60847;SDS011;46681;47.696;9.140;2022-09-01T03:35:05;8.52;;;3.20;;
60847;SDS011;46681;47.696;9.140;2022-09-01T03:37:37;8.70;;;3.50;;
60847;SDS011;46681;47.696;9.140;2022-09-01T03:40:05;8.63;;;3.28;;
60847;SDS011;46681;47.696;9.140;2022-09-01T03:42:40;8.55;;;3.17;;
60847;SDS011;46681;47.696;9.140;2022-09-01T03:45:16;9.00;;;3.30;;
60847;SDS011;46681;47.696;9.140;2022-09-01T03:47:54;8.57;;;3.00;;
60847;SDS011;46681;47.696;9.140;2022-09-01T03:50:27;9.25;;;3.40;;
60847;SDS011;46681;47.696;9.140;2022-09-01T03:52:56;8.50;;;3.20;;
60847;SDS011;46681;47.696;9.140;2022-09-01T03:55:28;8.55;;;3.30;;
60847;SDS011;46681;47.696;9.140;2022-09-01T03:58:00;8.68;;;3.15;;
60847;SDS011;46681;47.696;9.140;2022-09-01T04:00:51;8.43;;;3.00;;
60847;SDS011;46681;47.696;9.140;2022-09-01T04:03:32;9.00;;;3.13;;
60847;SDS011;46681;47.696;9.140;2022-09-01T04:06:03;8.27;;;2.95;;
60847;SDS011;46681;47.696;9.140;2022-09-01T04:08:35;7.93;;;2.85;;
60847;SDS011;46681;47.696;9.140;2022-09-01T04:11:09;8.18;;;3.00;;
60847;SDS011;46681;47.696;9.140;2022-09-01T04:13:44;8.80;;;3.17;;
60847;SDS011;46681;47.696;9.140;2022-09-01T04:16:22;7.78;;;2.70;;
60847;SDS011;46681;47.696;9.140;2022-09-01T04:19:03;7.97;;;3.08;;
60847;SDS011;46681;47.696;9.140;2022-09-01T04:21:37;8.15;;;2.90;;
60847;SDS011;46681;47.696;9.140;2022-09-01T04:24:05;8.00;;;2.95;;
60847;SDS011;46681;47.696;9.140;2022-09-01T04:26:50;8.38;;;3.03;;
60847;SDS011;46681;47.696;9.140;2022-09-01T04:29:20;8.02;;;2.80;;
60847;SDS011;46681;47.696;9.140;2022-09-01T04:31:46;7.28;;;2.50;;
60847;SDS011;46681;47.696;9.140;2022-09-01T04:34:13;8.32;;;3.17;;
60847;SDS011;46681;47.696;9.140;2022-09-01T04:37:14;7.68;;;2.83;;
60847;SDS011;46681;47.696;9.140;2022-09-01T04:39:50;8.77;;;3.15;;
60847;SDS011;46681;47.696;9.140;2022-09-01T04:42:27;7.95;;;2.70;;
60847;SDS011;46681;47.696;9.140;2022-09-01T04:45:14;7.25;;;2.70;;
60847;SDS011;46681;47.696;9.140;2022-09-01T04:50:47;8.85;;;2.88;;
60847;SDS011;46681;47.696;9.140;2022-09-01T04:53:15;7.80;;;2.80;;
60847;SDS011;46681;47.696;9.140;2022-09-01T04:56:01;8.75;;;3.00;;
60847;SDS011;46681;47.696;9.140;2022-09-01T04:58:35;8.13;;;3.00;;
60847;SDS011;46681;47.696;9.140;2022-09-01T05:04:19;8.00;;;2.72;;
60847;SDS011;46681;47.696;9.140;2022-09-01T05:07:01;8.60;;;2.67;;
60847;SDS011;46681;47.696;9.140;2022-09-01T05:09:49;8.35;;;2.75;;
60847;SDS011;46681;47.696;9.140;2022-09-01T05:12:25;7.57;;;2.73;;
60847;SDS011;46681;47.696;9.140;2022-09-01T05:15:09;8.02;;;2.83;;
60847;SDS011;46681;47.696;9.140;2022-09-01T05:17:40;8.63;;;2.50;;
60847;SDS011;46681;47.696;9.140;2022-09-01T05:20:07;7.97;;;2.90;;
60847;SDS011;46681;47.696;9.140;2022-09-01T05:25:42;8.95;;;3.00;;
60847;SDS011;46681;47.696;9.140;2022-09-01T05:28:11;7.32;;;2.70;;
60847;SDS011;46681;47.696;9.140;2022-09-01T05:30:40;8.98;;;3.00;;
60847;SDS011;46681;47.696;9.140;2022-09-01T05:33:13;7.63;;;2.78;;
60847;SDS011;46681;47.696;9.140;2022-09-01T05:36:04;7.38;;;2.60;;
60847;SDS011;46681;47.696;9.140;2022-09-01T05:38:41;7.88;;;2.60;;
60847;SDS011;46681;47.696;9.140;2022-09-01T05:41:25;9.85;;;2.80;;
60847;SDS011;46681;47.696;9.140;2022-09-01T05:44:04;7.32;;;2.70;;
60847;SDS011;46681;47.696;9.140;2022-09-01T05:49:32;7.53;;;2.60;;
60847;SDS011;46681;47.696;9.140;2022-09-01T05:52:20;8.13;;;2.80;;
60847;SDS011;46681;47.696;9.140;2022-09-01T05:58:14;7.72;;;2.75;;
60847;SDS011;46681;47.696;9.140;2022-09-01T06:01:01;9.15;;;2.92;;
60847;SDS011;46681;47.696;9.140;2022-09-01T06:03:35;7.57;;;2.80;;
60847;SDS011;46681;47.696;9.140;2022-09-01T06:06:12;7.78;;;2.60;;
60847;SDS011;46681;47.696;9.140;2022-09-01T06:11:25;7.90;;;2.72;;
60847;SDS011;46681;47.696;9.140;2022-09-01T06:13:59;7.63;;;2.72;;
60847;SDS011;46681;47.696;9.140;2022-09-01T06:16:39;8.55;;;3.05;;
60847;SDS011;46681;47.696;9.140;2022-09-01T06:19:12;7.10;;;2.53;;
60847;SDS011;46681;47.696;9.140;2022-09-01T06:21:50;8.40;;;2.90;;
60847;SDS011;46681;47.696;9.140;2022-09-01T06:24:17;7.97;;;2.63;;
60847;SDS011;46681;47.696;9.140;2022-09-01T06:30:10;10.20;;;2.83;;
60847;SDS011;46681;47.696;9.140;2022-09-01T06:32:57;8.20;;;2.85;;
60847;SDS011;46681;47.696;9.140;2022-09-01T06:35:34;8.45;;;2.78;;
60847;SDS011;46681;47.696;9.140;2022-09-01T06:38:18;8.17;;;2.50;;
60847;SDS011;46681;47.696;9.140;2022-09-01T06:40:58;8.02;;;2.70;;
60847;SDS011;46681;47.696;9.140;2022-09-01T06:46:39;8.80;;;2.80;;
60847;SDS011;46681;47.696;9.140;2022-09-01T06:49:04;7.90;;;2.72;;
60847;SDS011;46681;47.696;9.140;2022-09-01T06:51:38;8.25;;;2.90;;
60847;SDS011;46681;47.696;9.140;2022-09-01T06:54:41;8.75;;;2.63;;
60847;SDS011;46681;47.696;9.140;2022-09-01T06:57:04;7.47;;;2.80;;
60847;SDS011;46681;47.696;9.140;2022-09-01T06:59:42;7.68;;;2.65;;
60847;SDS011;46681;47.696;9.140;2022-09-01T07:02:24;7.53;;;2.85;;
60847;SDS011;46681;47.696;9.140;2022-09-01T07:05:00;8.27;;;2.80;;
60847;SDS011;46681;47.696;9.140;2022-09-01T07:07:49;7.75;;;2.80;;
60847;SDS011;46681;47.696;9.140;2022-09-01T07:10:29;9.13;;;3.15;;
60847;SDS011;46681;47.696;9.140;2022-09-01T07:13:27;9.07;;;3.00;;
60847;SDS011;46681;47.696;9.140;2022-09-01T07:16:24;7.35;;;2.70;;
60847;SDS011;46681;47.696;9.140;2022-09-01T07:28:43;8.40;;;2.75;;
60847;SDS011;46681;47.696;9.140;2022-09-01T07:31:35;7.68;;;2.53;;
60847;SDS011;46681;47.696;9.140;2022-09-01T07:34:10;9.00;;;2.90;;
60847;SDS011;46681;47.696;9.140;2022-09-01T07:40:13;13.50;;;3.83;;
60847;SDS011;46681;47.696;9.140;2022-09-01T07:42:54;10.50;;;3.50;;
60847;SDS011;46681;47.696;9.140;2022-09-01T07:45:38;11.45;;;3.80;;
60847;SDS011;46681;47.696;9.140;2022-09-01T07:54:12;12.32;;;3.97;;
60847;SDS011;46681;47.696;9.140;2022-09-01T07:57:23;15.23;;;5.10;;
60847;SDS011;46681;47.696;9.140;2022-09-01T08:00:22;12.57;;;4.47;;
60847;SDS011;46681;47.696;9.140;2022-09-01T08:03:16;13.82;;;4.35;;
60847;SDS011;46681;47.696;9.140;2022-09-01T08:06:07;13.18;;;4.03;;
60847;SDS011;46681;47.696;9.140;2022-09-01T08:12:16;10.13;;;3.60;;
60847;SDS011;46681;47.696;9.140;2022-09-01T08:14:58;13.15;;;3.63;;
60847;SDS011;46681;47.696;9.140;2022-09-01T08:17:54;11.77;;;3.45;;
60847;SDS011;46681;47.696;9.140;2022-09-01T08:20:32;13.27;;;3.40;;
60847;SDS011;46681;47.696;9.140;2022-09-01T08:23:22;12.40;;;3.80;;
60847;SDS011;46681;47.696;9.140;2022-09-01T08:26:24;12.13;;;3.55;;
60847;SDS011;46681;47.696;9.140;2022-09-01T08:29:36;12.07;;;3.00;;
60847;SDS011;46681;47.696;9.140;2022-09-01T08:32:15;12.77;;;3.50;;
60847;SDS011;46681;47.696;9.140;2022-09-01T08:44:40;9.90;;;2.85;;
60847;SDS011;46681;47.696;9.140;2022-09-01T08:47:28;8.65;;;2.40;;
60847;SDS011;46681;47.696;9.140;2022-09-01T08:50:17;8.25;;;2.70;;
60847;SDS011;46681;47.696;9.140;2022-09-01T08:53:13;8.55;;;2.55;;
60847;SDS011;46681;47.696;9.140;2022-09-01T08:59:52;8.88;;;2.70;;
60847;SDS011;46681;47.696;9.140;2022-09-01T09:09:05;8.35;;;2.50;;
60847;SDS011;46681;47.696;9.140;2022-09-01T09:18:00;8.23;;;2.35;;
60847;SDS011;46681;47.696;9.140;2022-09-01T09:21:05;6.60;;;2.20;;
60847;SDS011;46681;47.696;9.140;2022-09-01T09:24:15;7.53;;;2.25;;
60847;SDS011;46681;47.696;9.140;2022-09-01T09:27:06;6.32;;;2.08;;
60847;SDS011;46681;47.696;9.140;2022-09-01T09:33:31;7.10;;;2.10;;
60847;SDS011;46681;47.696;9.140;2022-09-01T09:36:22;5.75;;;2.00;;
60847;SDS011;46681;47.696;9.140;2022-09-01T09:42:31;7.78;;;2.10;;
60847;SDS011;46681;47.696;9.140;2022-09-01T09:51:37;6.22;;;1.95;;
60847;SDS011;46681;47.696;9.140;2022-09-01T09:57:38;6.38;;;2.00;;
60847;SDS011;46681;47.696;9.140;2022-09-01T10:16:34;7.20;;;1.90;;
60847;SDS011;46681;47.696;9.140;2022-09-01T10:19:43;5.75;;;1.88;;
60847;SDS011;46681;47.696;9.140;2022-09-01T10:31:49;6.57;;;1.90;;
60847;SDS011;46681;47.696;9.140;2022-09-01T10:38:20;4.60;;;1.77;;
60847;SDS011;46681;47.696;9.140;2022-09-01T10:40:45;5.28;;;1.80;;
60847;SDS011;46681;47.696;9.140;2022-09-01T10:47:02;5.32;;;1.80;;
60847;SDS011;46681;47.696;9.140;2022-09-01T11:02:23;4.43;;;1.80;;
60847;SDS011;46681;47.696;9.140;2022-09-01T11:05:24;5.70;;;1.70;;
60847;SDS011;46681;47.696;9.140;2022-09-01T11:15:06;7.03;;;1.80;;
60847;SDS011;46681;47.696;9.140;2022-09-01T11:30:07;4.60;;;1.50;;
60847;SDS011;46681;47.696;9.140;2022-09-01T11:33:00;4.13;;;1.70;;
60847;SDS011;46681;47.696;9.140;2022-09-01T11:36:12;4.68;;;1.80;;
60847;SDS011;46681;47.696;9.140;2022-09-01T11:48:11;3.95;;;1.63;;
60847;SDS011;46681;47.696;9.140;2022-09-01T11:50:56;4.72;;;1.60;;
60847;SDS011;46681;47.696;9.140;2022-09-01T11:54:03;4.43;;;1.60;;
60847;SDS011;46681;47.696;9.140;2022-09-01T11:56:48;4.68;;;1.77;;
60847;SDS011;46681;47.696;9.140;2022-09-01T12:00:12;4.15;;;1.70;;
60847;SDS011;46681;47.696;9.140;2022-09-01T12:06:21;5.30;;;1.70;;
60847;SDS011;46681;47.696;9.140;2022-09-01T12:09:45;4.65;;;1.75;;
60847;SDS011;46681;47.696;9.140;2022-09-01T12:12:46;4.55;;;1.70;;
60847;SDS011;46681;47.696;9.140;2022-09-01T12:15:50;4.32;;;1.63;;
60847;SDS011;46681;47.696;9.140;2022-09-01T12:21:54;4.47;;;1.73;;
60847;SDS011;46681;47.696;9.140;2022-09-01T12:24:51;6.60;;;1.70;;
60847;SDS011;46681;47.696;9.140;2022-09-01T12:33:30;4.50;;;1.70;;
60847;SDS011;46681;47.696;9.140;2022-09-01T12:45:52;4.00;;;1.58;;
60847;SDS011;46681;47.696;9.140;2022-09-01T12:48:39;3.92;;;1.60;;
60847;SDS011;46681;47.696;9.140;2022-09-01T12:55:17;5.45;;;1.70;;
60847;SDS011;46681;47.696;9.140;2022-09-01T12:58:18;5.10;;;1.70;;
60847;SDS011;46681;47.696;9.140;2022-09-01T13:10:15;4.78;;;1.70;;
60847;SDS011;46681;47.696;9.140;2022-09-01T13:13:20;3.63;;;1.48;;
60847;SDS011;46681;47.696;9.140;2022-09-01T13:16:20;7.13;;;2.20;;
60847;SDS011;46681;47.696;9.140;2022-09-01T13:25:19;5.95;;;1.70;;
60847;SDS011;46681;47.696;9.140;2022-09-01T13:31:17;5.00;;;1.77;;
60847;SDS011;46681;47.696;9.140;2022-09-01T13:34:27;3.60;;;1.50;;
60847;SDS011;46681;47.696;9.140;2022-09-01T13:37:26;6.68;;;1.73;;
60847;SDS011;46681;47.696;9.140;2022-09-01T13:40:19;3.83;;;1.60;;
60847;SDS011;46681;47.696;9.140;2022-09-01T13:45:53;6.78;;;1.80;;
60847;SDS011;46681;47.696;9.140;2022-09-01T13:48:29;3.50;;;1.50;;
60847;SDS011;46681;47.696;9.140;2022-09-01T13:50:59;4.13;;;1.63;;
60847;SDS011;46681;47.696;9.140;2022-09-01T14:09:53;4.47;;;1.67;;
60847;SDS011;46681;47.696;9.140;2022-09-01T14:12:43;4.68;;;1.80;;
60847;SDS011;46681;47.696;9.140;2022-09-01T14:15:34;5.38;;;1.70;;
60847;SDS011;46681;47.696;9.140;2022-09-01T14:18:34;5.13;;;1.70;;
60847;SDS011;46681;47.696;9.140;2022-09-01T14:21:25;4.80;;;1.70;;
60847;SDS011;46681;47.696;9.140;2022-09-01T14:27:42;3.65;;;1.63;;
60847;SDS011;46681;47.696;9.140;2022-09-01T14:30:30;4.55;;;1.60;;
60847;SDS011;46681;47.696;9.140;2022-09-01T14:33:38;4.30;;;1.60;;
60847;SDS011;46681;47.696;9.140;2022-09-01T14:36:26;3.13;;;1.42;;
60847;SDS011;46681;47.696;9.140;2022-09-01T14:47:48;3.50;;;1.52;;
60847;SDS011;46681;47.696;9.140;2022-09-01T14:56:52;3.28;;;1.60;;
60847;SDS011;46681;47.696;9.140;2022-09-01T14:59:37;3.95;;;1.60;;
60847;SDS011;46681;47.696;9.140;2022-09-01T15:02:29;6.25;;;1.70;;
60847;SDS011;46681;47.696;9.140;2022-09-01T15:05:34;4.22;;;1.50;;
60847;SDS011;46681;47.696;9.140;2022-09-01T15:08:06;4.53;;;1.65;;
60847;SDS011;46681;47.696;9.140;2022-09-01T15:10:44;4.22;;;1.60;;
60847;SDS011;46681;47.696;9.140;2022-09-01T15:13:30;3.38;;;1.50;;
60847;SDS011;46681;47.696;9.140;2022-09-01T15:16:18;5.75;;;1.70;;
60847;SDS011;46681;47.696;9.140;2022-09-01T15:19:23;4.63;;;1.70;;
60847;SDS011;46681;47.696;9.140;2022-09-01T15:22:20;4.35;;;1.67;;
60847;SDS011;46681;47.696;9.140;2022-09-01T15:24:58;4.45;;;1.80;;
60847;SDS011;46681;47.696;9.140;2022-09-01T15:34:03;5.60;;;1.90;;
60847;SDS011;46681;47.696;9.140;2022-09-01T15:43:28;5.25;;;1.60;;
60847;SDS011;46681;47.696;9.140;2022-09-01T15:46:23;5.60;;;1.88;;
60847;SDS011;46681;47.696;9.140;2022-09-01T15:49:21;5.32;;;1.90;;
60847;SDS011;46681;47.696;9.140;2022-09-01T15:52:03;6.10;;;1.95;;
60847;SDS011;46681;47.696;9.140;2022-09-01T15:55:00;9.00;;;2.17;;
60847;SDS011;46681;47.696;9.140;2022-09-01T16:00:47;8.52;;;2.10;;
60847;SDS011;46681;47.696;9.140;2022-09-01T16:03:23;8.75;;;2.13;;
60847;SDS011;46681;47.696;9.140;2022-09-01T16:06:05;8.73;;;2.13;;
60847;SDS011;46681;47.696;9.140;2022-09-01T16:12:14;11.85;;;2.03;;
60847;SDS011;46681;47.696;9.140;2022-09-01T16:24:47;7.70;;;2.30;;
60847;SDS011;46681;47.696;9.140;2022-09-01T16:31:22;6.03;;;2.00;;
60847;SDS011;46681;47.696;9.140;2022-09-01T16:37:33;6.45;;;2.00;;
60847;SDS011;46681;47.696;9.140;2022-09-01T16:52:23;7.32;;;2.33;;
60847;SDS011;46681;47.696;9.140;2022-09-01T17:07:37;5.82;;;2.13;;
60847;SDS011;46681;47.696;9.140;2022-09-01T17:14:05;7.40;;;2.03;;
60847;SDS011;46681;47.696;9.140;2022-09-01T17:17:14;6.25;;;2.20;;
60847;SDS011;46681;47.696;9.140;2022-09-01T17:20:06;6.47;;;2.17;;
60847;SDS011;46681;47.696;9.140;2022-09-01T17:22:59;6.90;;;2.50;;
60847;SDS011;46681;47.696;9.140;2022-09-01T17:29:10;6.85;;;2.30;;
60847;SDS011;46681;47.696;9.140;2022-09-01T17:58:02;7.10;;;2.50;;
60847;SDS011;46681;47.696;9.140;2022-09-01T18:29:18;7.65;;;2.70;;
60847;SDS011;46681;47.696;9.140;2022-09-01T18:46:21;9.40;;;2.65;;
60847;SDS011;46681;47.696;9.140;2022-09-01T18:55:16;8.52;;;2.55;;
60847;SDS011;46681;47.696;9.140;2022-09-01T18:58:14;8.45;;;2.78;;
60847;SDS011;46681;47.696;9.140;2022-09-01T19:04:05;6.88;;;2.63;;
60847;SDS011;46681;47.696;9.140;2022-09-01T19:19:57;8.57;;;2.75;;
60847;SDS011;46681;47.696;9.140;2022-09-01T19:25:30;7.38;;;2.55;;
60847;SDS011;46681;47.696;9.140;2022-09-01T19:31:18;7.60;;;2.75;;
60847;SDS011;46681;47.696;9.140;2022-09-01T19:33:56;7.90;;;2.72;;
60847;SDS011;46681;47.696;9.140;2022-09-01T19:36:51;7.40;;;2.40;;
60847;SDS011;46681;47.696;9.140;2022-09-01T19:52:00;8.07;;;2.60;;
60847;SDS011;46681;47.696;9.140;2022-09-01T19:58:11;7.82;;;2.42;;
60847;SDS011;46681;47.696;9.140;2022-09-01T20:00:59;7.82;;;2.70;;
60847;SDS011;46681;47.696;9.140;2022-09-01T20:07:05;7.95;;;2.60;;
60847;SDS011;46681;47.696;9.140;2022-09-01T20:15:57;7.70;;;2.53;;
60847;SDS011;46681;47.696;9.140;2022-09-01T20:18:36;7.45;;;2.60;;
60847;SDS011;46681;47.696;9.140;2022-09-01T20:21:32;7.07;;;2.38;;
60847;SDS011;46681;47.696;9.140;2022-09-01T20:30:16;7.03;;;2.53;;
60847;SDS011;46681;47.696;9.140;2022-09-01T20:35:57;6.40;;;2.22;;
60847;SDS011;46681;47.696;9.140;2022-09-01T20:44:58;7.55;;;2.30;;
60847;SDS011;46681;47.696;9.140;2022-09-01T21:06:55;7.18;;;2.47;;
60847;SDS011;46681;47.696;9.140;2022-09-01T21:18:05;8.02;;;2.58;;
60847;SDS011;46681;47.696;9.140;2022-09-01T21:23:39;8.30;;;2.20;;
60847;SDS011;46681;47.696;9.140;2022-09-01T21:26:07;6.47;;;2.20;;
60847;SDS011;46681;47.696;9.140;2022-09-01T21:28:53;6.40;;;2.30;;
60847;SDS011;46681;47.696;9.140;2022-09-01T21:31:46;6.80;;;2.20;;
60847;SDS011;46681;47.696;9.140;2022-09-01T21:37:30;7.75;;;2.30;;
60847;SDS011;46681;47.696;9.140;2022-09-01T21:42:57;8.32;;;2.30;;
60847;SDS011;46681;47.696;9.140;2022-09-01T21:45:39;6.93;;;2.40;;
60847;SDS011;46681;47.696;9.140;2022-09-01T21:48:13;6.60;;;2.25;;
60847;SDS011;46681;47.696;9.140;2022-09-01T21:50:45;7.20;;;2.08;;
60847;SDS011;46681;47.696;9.140;2022-09-01T21:53:13;6.13;;;2.10;;
60847;SDS011;46681;47.696;9.140;2022-09-01T21:55:52;7.45;;;2.33;;
60847;SDS011;46681;47.696;9.140;2022-09-01T21:58:26;8.13;;;2.50;;
60847;SDS011;46681;47.696;9.140;2022-09-01T22:00:52;5.97;;;2.20;;
60847;SDS011;46681;47.696;9.140;2022-09-01T22:03:21;7.47;;;2.40;;
60847;SDS011;46681;47.696;9.140;2022-09-01T22:05:52;5.70;;;2.00;;
60847;SDS011;46681;47.696;9.140;2022-09-01T22:08:24;6.57;;;2.17;;
60847;SDS011;46681;47.696;9.140;2022-09-01T22:10:51;6.10;;;2.10;;
60847;SDS011;46681;47.696;9.140;2022-09-01T22:19:23;5.93;;;2.10;;
60847;SDS011;46681;47.696;9.140;2022-09-01T22:22:41;6.35;;;2.30;;
60847;SDS011;46681;47.696;9.140;2022-09-01T22:25:14;6.55;;;2.20;;
60847;SDS011;46681;47.696;9.140;2022-09-01T22:33:49;5.63;;;2.13;;
60847;SDS011;46681;47.696;9.140;2022-09-01T22:39:15;6.45;;;2.15;;
60847;SDS011;46681;47.696;9.140;2022-09-01T22:42:07;5.85;;;2.17;;
60847;SDS011;46681;47.696;9.140;2022-09-01T22:44:33;6.65;;;2.40;;
60847;SDS011;46681;47.696;9.140;2022-09-01T22:47:04;5.35;;;2.13;;
60847;SDS011;46681;47.696;9.140;2022-09-01T22:49:36;5.55;;;1.90;;
60847;SDS011;46681;47.696;9.140;2022-09-01T22:52:03;5.50;;;1.90;;
60847;SDS011;46681;47.696;9.140;2022-09-01T22:54:47;6.72;;;2.30;;
60847;SDS011;46681;47.696;9.140;2022-09-01T22:57:37;5.97;;;2.15;;
60847;SDS011;46681;47.696;9.140;2022-09-01T23:00:06;5.82;;;2.10;;
60847;SDS011;46681;47.696;9.140;2022-09-01T23:02:47;7.22;;;2.20;;
60847;SDS011;46681;47.696;9.140;2022-09-01T23:05:16;7.57;;;2.30;;
60847;SDS011;46681;47.696;9.140;2022-09-01T23:07:59;6.03;;;2.20;;
60847;SDS011;46681;47.696;9.140;2022-09-01T23:10:33;7.13;;;2.10;;
60847;SDS011;46681;47.696;9.140;2022-09-01T23:13:01;4.95;;;2.00;;
60847;SDS011;46681;47.696;9.140;2022-09-01T23:15:33;5.32;;;2.08;;
60847;SDS011;46681;47.696;9.140;2022-09-01T23:17:59;6.10;;;2.30;;
60847;SDS011;46681;47.696;9.140;2022-09-01T23:20:24;6.63;;;2.15;;
60847;SDS011;46681;47.696;9.140;2022-09-01T23:22:56;5.47;;;2.05;;
60847;SDS011;46681;47.696;9.140;2022-09-01T23:25:29;7.00;;;2.08;;
60847;SDS011;46681;47.696;9.140;2022-09-01T23:27:54;5.18;;;1.90;;
60847;SDS011;46681;47.696;9.140;2022-09-01T23:30:26;6.63;;;2.15;;
60847;SDS011;46681;47.696;9.140;2022-09-01T23:32:51;6.32;;;2.05;;
60847;SDS011;46681;47.696;9.140;2022-09-01T23:35:22;6.05;;;2.22;;
60847;SDS011;46681;47.696;9.140;2022-09-01T23:37:48;5.10;;;1.90;;
60847;SDS011;46681;47.696;9.140;2022-09-01T23:40:35;6.57;;;2.22;;
60847;SDS011;46681;47.696;9.140;2022-09-01T23:43:04;6.05;;;2.00;;
60847;SDS011;46681;47.696;9.140;2022-09-01T23:45:36;7.28;;;2.17;;
60847;SDS011;46681;47.696;9.140;2022-09-01T23:48:15;5.97;;;2.15;;
60847;SDS011;46681;47.696;9.140;2022-09-01T23:50:57;5.68;;;1.90;;
60847;SDS011;46681;47.696;9.140;2022-09-01T23:53:40;4.35;;;1.80;;
60847;SDS011;46681;47.696;9.140;2022-09-01T23:56:18;5.28;;;1.92;;
60847;SDS011;46681;47.696;9.140;2022-09-01T23:58:57;5.47;;;2.05;;
